首页
METAR-TAF:

METAR-TAF

机场 :

布鲁塞尔机场

布鲁塞尔, 比利时

纬度: 50-54N, 经度: 004-32E, 海拔: 55米

当前天气观测

该预报发布于48分钟前的09:50 UTC
风速4节,风向,在东转东北东南之间变化
温度 21°C
湿度 46%
气压 1017 hPa
能见度10公里或以上
1500米以下无云,无积雨云

METAR: EBBR 190950Z 08004KT 060V140 CAVOK 21/09 Q1017 NOSIG

时间: 12:38 (10:38 UTC)

预报

该预报发布于5小时和28分钟前的05:10 UTC
预报有效从19日的 06点(UTC)到 20日的 12点(UTC)
风速6节,风向
能见度10公里或以上
1500米以下无云,无积雨云

TAF: EBBR 190510Z 1906/2012 08006KT CAVOK

超过4000个机场的气象观测和天气预报(METAR&TAF报告)。

可查询的气象台以黄色和红色小点在地图上表示。

将鼠标移到小点上方,可查看气象台名称。

然后点击查看天气观测和预报。

如需切换地图:点击带黑十字的绿色按钮放大地图;点击带横线的绿色按钮缩小地图;或者点击绿色箭头查看邻近地区的地图。


METAR-TAF: